sensor_id;sensor_type;location;lat;lon;timestamp;P1;durP1;ratioP1;P2;durP2;ratioP2
11123;SDS011;5616;42.692;23.312;2023-07-16T00:00:30;10.75;;;8.02;;
11123;SDS011;5616;42.692;23.312;2023-07-16T00:02:57;10.35;;;8.32;;
11123;SDS011;5616;42.692;23.312;2023-07-16T00:05:24;12.50;;;8.57;;
11123;SDS011;5616;42.692;23.312;2023-07-16T00:07:51;12.82;;;7.60;;
11123;SDS011;5616;42.692;23.312;2023-07-16T00:10:18;10.52;;;8.18;;
11123;SDS011;5616;42.692;23.312;2023-07-16T00:12:44;10.18;;;8.30;;
11123;SDS011;5616;42.692;23.312;2023-07-16T00:15:13;10.13;;;8.10;;
11123;SDS011;5616;42.692;23.312;2023-07-16T00:17:39;11.50;;;7.20;;
11123;SDS011;5616;42.692;23.312;2023-07-16T00:20:07;10.07;;;6.95;;
11123;SDS011;5616;42.692;23.312;2023-07-16T00:22:35;12.18;;;7.15;;
11123;SDS011;5616;42.692;23.312;2023-07-16T00:25:04;11.88;;;7.07;;
11123;SDS011;5616;42.692;23.312;2023-07-16T00:27:32;11.75;;;7.35;;
11123;SDS011;5616;42.692;23.312;2023-07-16T00:29:58;9.52;;;6.95;;
11123;SDS011;5616;42.692;23.312;2023-07-16T00:32:27;8.75;;;6.95;;
11123;SDS011;5616;42.692;23.312;2023-07-16T00:34:53;9.23;;;6.97;;
11123;SDS011;5616;42.692;23.312;2023-07-16T00:37:20;8.32;;;7.28;;
11123;SDS011;5616;42.692;23.312;2023-07-16T00:39:47;7.32;;;6.43;;
11123;SDS011;5616;42.692;23.312;2023-07-16T00:42:14;8.82;;;6.63;;
11123;SDS011;5616;42.692;23.312;2023-07-16T00:44:40;10.02;;;6.30;;
11123;SDS011;5616;42.692;23.312;2023-07-16T00:47:08;7.32;;;6.15;;
11123;SDS011;5616;42.692;23.312;2023-07-16T00:49:37;9.13;;;6.25;;
11123;SDS011;5616;42.692;23.312;2023-07-16T00:52:05;7.60;;;6.60;;
11123;SDS011;5616;42.692;23.312;2023-07-16T00:54:34;7.72;;;5.72;;
11123;SDS011;5616;42.692;23.312;2023-07-16T00:57:01;7.35;;;6.55;;
11123;SDS011;5616;42.692;23.312;2023-07-16T00:59:28;7.70;;;6.00;;
11123;SDS011;5616;42.692;23.312;2023-07-16T01:01:57;7.85;;;6.38;;
11123;SDS011;5616;42.692;23.312;2023-07-16T01:04:24;9.13;;;5.90;;
11123;SDS011;5616;42.692;23.312;2023-07-16T01:06:53;9.85;;;6.05;;
11123;SDS011;5616;42.692;23.312;2023-07-16T01:09:24;9.45;;;6.10;;
11123;SDS011;5616;42.692;23.312;2023-07-16T01:11:51;8.38;;;5.97;;
11123;SDS011;5616;42.692;23.312;2023-07-16T01:14:19;6.80;;;5.97;;
11123;SDS011;5616;42.692;23.312;2023-07-16T01:16:46;11.43;;;6.07;;
11123;SDS011;5616;42.692;23.312;2023-07-16T01:19:13;7.75;;;5.70;;
11123;SDS011;5616;42.692;23.312;2023-07-16T01:21:42;7.65;;;5.82;;
11123;SDS011;5616;42.692;23.312;2023-07-16T01:24:27;9.57;;;5.50;;
11123;SDS011;5616;42.692;23.312;2023-07-16T01:30:13;6.72;;;5.30;;
11123;SDS011;5616;42.692;23.312;2023-07-16T01:32:42;7.07;;;5.53;;
11123;SDS011;5616;42.692;23.312;2023-07-16T01:35:10;7.75;;;5.15;;
11123;SDS011;5616;42.692;23.312;2023-07-16T01:37:37;10.20;;;5.75;;
11123;SDS011;5616;42.692;23.312;2023-07-16T01:40:05;7.05;;;5.60;;
11123;SDS011;5616;42.692;23.312;2023-07-16T01:42:34;5.97;;;4.93;;
11123;SDS011;5616;42.692;23.312;2023-07-16T01:45:02;6.88;;;5.40;;
11123;SDS011;5616;42.692;23.312;2023-07-16T01:47:32;7.60;;;5.50;;
11123;SDS011;5616;42.692;23.312;2023-07-16T01:53:00;8.38;;;5.00;;
11123;SDS011;5616;42.692;23.312;2023-07-16T01:55:39;7.38;;;5.35;;
11123;SDS011;5616;42.692;23.312;2023-07-16T01:58:06;7.50;;;5.10;;
11123;SDS011;5616;42.692;23.312;2023-07-16T02:00:33;6.80;;;5.10;;
11123;SDS011;5616;42.692;23.312;2023-07-16T02:03:01;9.43;;;5.13;;
11123;SDS011;5616;42.692;23.312;2023-07-16T02:05:30;6.30;;;5.68;;
11123;SDS011;5616;42.692;23.312;2023-07-16T02:07:57;6.97;;;5.22;;
11123;SDS011;5616;42.692;23.312;2023-07-16T02:10:25;6.80;;;5.00;;
11123;SDS011;5616;42.692;23.312;2023-07-16T02:12:52;8.88;;;5.53;;
11123;SDS011;5616;42.692;23.312;2023-07-16T02:15:19;8.93;;;5.10;;
11123;SDS011;5616;42.692;23.312;2023-07-16T02:17:47;8.60;;;4.97;;
11123;SDS011;5616;42.692;23.312;2023-07-16T02:20:16;6.22;;;4.97;;
11123;SDS011;5616;42.692;23.312;2023-07-16T02:22:43;5.97;;;4.78;;
11123;SDS011;5616;42.692;23.312;2023-07-16T02:25:11;5.80;;;4.90;;
11123;SDS011;5616;42.692;23.312;2023-07-16T02:27:38;6.63;;;5.55;;
11123;SDS011;5616;42.692;23.312;2023-07-16T02:30:05;10.35;;;5.40;;
11123;SDS011;5616;42.692;23.312;2023-07-16T02:32:34;6.28;;;5.40;;
11123;SDS011;5616;42.692;23.312;2023-07-16T02:35:01;9.00;;;5.50;;
11123;SDS011;5616;42.692;23.312;2023-07-16T02:37:30;6.55;;;5.90;;
11123;SDS011;5616;42.692;23.312;2023-07-16T02:39:56;8.98;;;6.13;;
11123;SDS011;5616;42.692;23.312;2023-07-16T02:42:23;10.05;;;6.25;;
11123;SDS011;5616;42.692;23.312;2023-07-16T02:44:50;7.45;;;5.28;;
11123;SDS011;5616;42.692;23.312;2023-07-16T02:47:17;7.90;;;5.55;;
11123;SDS011;5616;42.692;23.312;2023-07-16T02:49:44;9.38;;;4.82;;
11123;SDS011;5616;42.692;23.312;2023-07-16T02:52:13;8.77;;;5.28;;
11123;SDS011;5616;42.692;23.312;2023-07-16T02:54:41;5.40;;;4.90;;
11123;SDS011;5616;42.692;23.312;2023-07-16T02:57:08;7.68;;;4.80;;
11123;SDS011;5616;42.692;23.312;2023-07-16T02:59:35;6.35;;;4.75;;
11123;SDS011;5616;42.692;23.312;2023-07-16T03:02:02;7.97;;;5.00;;
11123;SDS011;5616;42.692;23.312;2023-07-16T03:04:29;7.32;;;5.35;;
11123;SDS011;5616;42.692;23.312;2023-07-16T03:06:56;10.60;;;4.93;;
11123;SDS011;5616;42.692;23.312;2023-07-16T03:09:22;6.18;;;4.35;;
11123;SDS011;5616;42.692;23.312;2023-07-16T03:11:51;8.77;;;4.97;;
11123;SDS011;5616;42.692;23.312;2023-07-16T03:14:18;6.75;;;4.70;;
11123;SDS011;5616;42.692;23.312;2023-07-16T03:16:44;7.65;;;5.00;;
11123;SDS011;5616;42.692;23.312;2023-07-16T03:19:11;8.25;;;4.68;;
11123;SDS011;5616;42.692;23.312;2023-07-16T03:21:38;5.13;;;4.63;;
11123;SDS011;5616;42.692;23.312;2023-07-16T03:24:05;5.38;;;4.85;;
11123;SDS011;5616;42.692;23.312;2023-07-16T03:26:32;6.63;;;4.18;;
11123;SDS011;5616;42.692;23.312;2023-07-16T03:29:01;5.78;;;4.20;;
11123;SDS011;5616;42.692;23.312;2023-07-16T03:31:28;5.75;;;4.70;;
11123;SDS011;5616;42.692;23.312;2023-07-16T03:33:55;5.90;;;4.78;;
11123;SDS011;5616;42.692;23.312;2023-07-16T03:36:25;7.05;;;4.65;;
11123;SDS011;5616;42.692;23.312;2023-07-16T03:38:51;6.63;;;4.70;;
11123;SDS011;5616;42.692;23.312;2023-07-16T03:41:18;6.45;;;4.47;;
11123;SDS011;5616;42.692;23.312;2023-07-16T03:43:46;6.40;;;4.55;;
11123;SDS011;5616;42.692;23.312;2023-07-16T03:46:18;9.18;;;4.95;;
11123;SDS011;5616;42.692;23.312;2023-07-16T03:48:45;5.68;;;5.07;;
11123;SDS011;5616;42.692;23.312;2023-07-16T03:51:12;8.73;;;4.53;;
11123;SDS011;5616;42.692;23.312;2023-07-16T03:53:38;8.68;;;5.10;;
11123;SDS011;5616;42.692;23.312;2023-07-16T03:56:05;11.60;;;5.53;;
11123;SDS011;5616;42.692;23.312;2023-07-16T03:58:35;9.25;;;5.40;;
11123;SDS011;5616;42.692;23.312;2023-07-16T04:01:04;5.57;;;4.78;;
11123;SDS011;5616;42.692;23.312;2023-07-16T04:03:33;6.53;;;4.75;;
11123;SDS011;5616;42.692;23.312;2023-07-16T04:06:03;6.75;;;4.80;;
11123;SDS011;5616;42.692;23.312;2023-07-16T04:08:30;9.20;;;5.35;;
11123;SDS011;5616;42.692;23.312;2023-07-16T04:10:57;6.07;;;4.78;;
11123;SDS011;5616;42.692;23.312;2023-07-16T04:13:24;6.45;;;4.60;;
11123;SDS011;5616;42.692;23.312;2023-07-16T04:15:50;5.22;;;4.57;;
11123;SDS011;5616;42.692;23.312;2023-07-16T04:18:19;8.38;;;5.00;;
11123;SDS011;5616;42.692;23.312;2023-07-16T04:20:48;7.15;;;4.75;;
11123;SDS011;5616;42.692;23.312;2023-07-16T04:23:15;5.28;;;4.78;;
11123;SDS011;5616;42.692;23.312;2023-07-16T04:25:42;7.10;;;4.75;;
11123;SDS011;5616;42.692;23.312;2023-07-16T04:28:09;7.50;;;5.45;;
11123;SDS011;5616;42.692;23.312;2023-07-16T04:30:37;8.25;;;5.05;;
11123;SDS011;5616;42.692;23.312;2023-07-16T04:33:04;8.35;;;5.70;;
11123;SDS011;5616;42.692;23.312;2023-07-16T04:35:31;7.70;;;5.43;;
11123;SDS011;5616;42.692;23.312;2023-07-16T04:38:00;7.07;;;5.03;;
11123;SDS011;5616;42.692;23.312;2023-07-16T04:40:28;6.82;;;5.35;;
11123;SDS011;5616;42.692;23.312;2023-07-16T04:42:55;9.13;;;5.15;;
11123;SDS011;5616;42.692;23.312;2023-07-16T04:45:22;7.90;;;5.40;;
11123;SDS011;5616;42.692;23.312;2023-07-16T04:47:49;6.82;;;5.20;;
11123;SDS011;5616;42.692;23.312;2023-07-16T04:50:16;5.85;;;5.20;;
11123;SDS011;5616;42.692;23.312;2023-07-16T04:52:43;9.50;;;5.28;;
11123;SDS011;5616;42.692;23.312;2023-07-16T04:55:11;7.75;;;5.10;;
11123;SDS011;5616;42.692;23.312;2023-07-16T04:57:38;8.27;;;5.38;;
11123;SDS011;5616;42.692;23.312;2023-07-16T05:00:06;6.05;;;5.10;;
11123;SDS011;5616;42.692;23.312;2023-07-16T05:02:34;8.20;;;5.10;;
11123;SDS011;5616;42.692;23.312;2023-07-16T05:05:01;7.28;;;5.00;;
11123;SDS011;5616;42.692;23.312;2023-07-16T05:07:28;6.38;;;5.07;;
11123;SDS011;5616;42.692;23.312;2023-07-16T05:09:55;5.25;;;4.70;;
11123;SDS011;5616;42.692;23.312;2023-07-16T05:12:24;5.57;;;4.78;;
11123;SDS011;5616;42.692;23.312;2023-07-16T05:14:50;5.63;;;4.93;;
11123;SDS011;5616;42.692;23.312;2023-07-16T05:17:17;8.52;;;5.28;;
11123;SDS011;5616;42.692;23.312;2023-07-16T05:19:44;7.70;;;5.13;;
11123;SDS011;5616;42.692;23.312;2023-07-16T05:22:11;6.85;;;4.68;;
11123;SDS011;5616;42.692;23.312;2023-07-16T05:24:38;6.18;;;5.03;;
11123;SDS011;5616;42.692;23.312;2023-07-16T05:27:05;6.28;;;4.30;;
11123;SDS011;5616;42.692;23.312;2023-07-16T05:29:33;5.50;;;4.38;;
11123;SDS011;5616;42.692;23.312;2023-07-16T05:32:00;7.43;;;4.20;;
11123;SDS011;5616;42.692;23.312;2023-07-16T05:34:27;6.47;;;4.57;;
11123;SDS011;5616;42.692;23.312;2023-07-16T05:36:54;6.30;;;4.35;;
11123;SDS011;5616;42.692;23.312;2023-07-16T05:39:21;9.25;;;4.63;;
11123;SDS011;5616;42.692;23.312;2023-07-16T05:41:48;8.50;;;4.00;;
11123;SDS011;5616;42.692;23.312;2023-07-16T05:44:15;6.88;;;4.55;;
11123;SDS011;5616;42.692;23.312;2023-07-16T05:46:43;7.25;;;4.45;;
11123;SDS011;5616;42.692;23.312;2023-07-16T05:49:10;5.75;;;4.10;;
11123;SDS011;5616;42.692;23.312;2023-07-16T05:51:37;5.05;;;4.53;;
11123;SDS011;5616;42.692;23.312;2023-07-16T05:54:03;5.38;;;4.43;;
11123;SDS011;5616;42.692;23.312;2023-07-16T05:56:31;6.50;;;4.05;;
11123;SDS011;5616;42.692;23.312;2023-07-16T05:58:58;4.68;;;4.18;;
11123;SDS011;5616;42.692;23.312;2023-07-16T06:01:25;4.70;;;4.22;;
11123;SDS011;5616;42.692;23.312;2023-07-16T06:03:53;5.95;;;4.20;;
11123;SDS011;5616;42.692;23.312;2023-07-16T06:06:20;4.63;;;3.80;;
11123;SDS011;5616;42.692;23.312;2023-07-16T06:08:47;4.78;;;4.38;;
11123;SDS011;5616;42.692;23.312;2023-07-16T06:11:14;4.85;;;3.42;;
11123;SDS011;5616;42.692;23.312;2023-07-16T06:13:41;5.57;;;4.30;;
11123;SDS011;5616;42.692;23.312;2023-07-16T06:16:08;8.30;;;3.83;;
11123;SDS011;5616;42.692;23.312;2023-07-16T06:18:35;5.85;;;4.03;;
11123;SDS011;5616;42.692;23.312;2023-07-16T06:21:03;4.30;;;3.88;;
11123;SDS011;5616;42.692;23.312;2023-07-16T06:23:30;6.95;;;3.85;;
11123;SDS011;5616;42.692;23.312;2023-07-16T06:25:57;6.18;;;3.97;;
11123;SDS011;5616;42.692;23.312;2023-07-16T06:28:23;5.95;;;3.90;;
11123;SDS011;5616;42.692;23.312;2023-07-16T06:30:50;4.28;;;3.88;;
11123;SDS011;5616;42.692;23.312;2023-07-16T06:33:18;5.13;;;3.92;;
11123;SDS011;5616;42.692;23.312;2023-07-16T06:35:45;4.63;;;3.95;;
11123;SDS011;5616;42.692;23.312;2023-07-16T06:38:14;6.43;;;4.70;;
11123;SDS011;5616;42.692;23.312;2023-07-16T06:40:45;4.78;;;3.75;;
11123;SDS011;5616;42.692;23.312;2023-07-16T06:43:13;6.75;;;4.18;;
11123;SDS011;5616;42.692;23.312;2023-07-16T06:45:40;5.80;;;4.07;;
11123;SDS011;5616;42.692;23.312;2023-07-16T06:48:07;7.10;;;4.15;;
11123;SDS011;5616;42.692;23.312;2023-07-16T06:50:34;5.25;;;3.90;;
11123;SDS011;5616;42.692;23.312;2023-07-16T06:53:01;4.20;;;3.80;;
11123;SDS011;5616;42.692;23.312;2023-07-16T06:55:29;5.75;;;3.67;;
11123;SDS011;5616;42.692;23.312;2023-07-16T06:57:56;7.38;;;4.20;;
11123;SDS011;5616;42.692;23.312;2023-07-16T07:00:23;6.70;;;3.40;;
11123;SDS011;5616;42.692;23.312;2023-07-16T07:02:50;5.22;;;3.70;;
11123;SDS011;5616;42.692;23.312;2023-07-16T07:05:17;4.72;;;3.70;;
11123;SDS011;5616;42.692;23.312;2023-07-16T07:07:44;8.40;;;3.33;;
11123;SDS011;5616;42.692;23.312;2023-07-16T07:10:11;5.22;;;3.50;;
11123;SDS011;5616;42.692;23.312;2023-07-16T07:12:39;4.97;;;3.20;;
11123;SDS011;5616;42.692;23.312;2023-07-16T07:15:07;6.70;;;3.50;;
11123;SDS011;5616;42.692;23.312;2023-07-16T07:17:34;3.92;;;3.42;;
11123;SDS011;5616;42.692;23.312;2023-07-16T07:20:01;3.78;;;3.28;;
11123;SDS011;5616;42.692;23.312;2023-07-16T07:22:29;6.78;;;3.53;;
11123;SDS011;5616;42.692;23.312;2023-07-16T07:24:57;4.05;;;3.13;;
11123;SDS011;5616;42.692;23.312;2023-07-16T07:27:24;4.60;;;3.20;;
11123;SDS011;5616;42.692;23.312;2023-07-16T07:29:52;3.75;;;2.78;;
11123;SDS011;5616;42.692;23.312;2023-07-16T07:32:21;3.53;;;3.17;;
11123;SDS011;5616;42.692;23.312;2023-07-16T07:34:48;3.72;;;2.88;;
11123;SDS011;5616;42.692;23.312;2023-07-16T07:37:15;5.13;;;2.90;;
11123;SDS011;5616;42.692;23.312;2023-07-16T07:39:42;5.45;;;2.78;;
11123;SDS011;5616;42.692;23.312;2023-07-16T07:42:10;5.95;;;3.10;;
11123;SDS011;5616;42.692;23.312;2023-07-16T07:44:37;3.45;;;3.03;;
11123;SDS011;5616;42.692;23.312;2023-07-16T07:47:06;4.97;;;2.90;;
11123;SDS011;5616;42.692;23.312;2023-07-16T07:49:33;5.15;;;3.28;;
11123;SDS011;5616;42.692;23.312;2023-07-16T07:52:00;7.35;;;3.10;;
11123;SDS011;5616;42.692;23.312;2023-07-16T07:54:27;5.47;;;2.78;;
11123;SDS011;5616;42.692;23.312;2023-07-16T07:56:54;3.42;;;2.90;;
11123;SDS011;5616;42.692;23.312;2023-07-16T07:59:21;3.47;;;2.70;;
11123;SDS011;5616;42.692;23.312;2023-07-16T08:01:48;4.63;;;2.80;;
11123;SDS011;5616;42.692;23.312;2023-07-16T08:04:16;4.65;;;2.80;;
11123;SDS011;5616;42.692;23.312;2023-07-16T08:06:43;5.25;;;2.70;;
11123;SDS011;5616;42.692;23.312;2023-07-16T08:09:09;4.40;;;3.03;;
11123;SDS011;5616;42.692;23.312;2023-07-16T08:11:36;3.25;;;2.92;;
11123;SDS011;5616;42.692;23.312;2023-07-16T08:14:03;3.50;;;3.20;;
11123;SDS011;5616;42.692;23.312;2023-07-16T08:16:30;3.40;;;2.92;;
11123;SDS011;5616;42.692;23.312;2023-07-16T08:18:57;4.18;;;2.65;;
11123;SDS011;5616;42.692;23.312;2023-07-16T08:21:25;3.78;;;3.10;;
11123;SDS011;5616;42.692;23.312;2023-07-16T08:23:52;4.47;;;3.25;;
11123;SDS011;5616;42.692;23.312;2023-07-16T08:26:19;4.57;;;3.10;;
11123;SDS011;5616;42.692;23.312;2023-07-16T08:28:45;3.83;;;3.50;;
11123;SDS011;5616;42.692;23.312;2023-07-16T08:31:12;5.95;;;3.40;;
11123;SDS011;5616;42.692;23.312;2023-07-16T08:33:39;5.57;;;3.55;;
11123;SDS011;5616;42.692;23.312;2023-07-16T08:36:06;5.82;;;4.07;;
11123;SDS011;5616;42.692;23.312;2023-07-16T08:38:35;8.60;;;4.10;;
11123;SDS011;5616;42.692;23.312;2023-07-16T08:41:01;4.63;;;3.55;;
11123;SDS011;5616;42.692;23.312;2023-07-16T08:43:28;6.18;;;3.35;;
11123;SDS011;5616;42.692;23.312;2023-07-16T08:45:56;4.82;;;3.83;;
11123;SDS011;5616;42.692;23.312;2023-07-16T08:48:23;7.55;;;3.70;;
11123;SDS011;5616;42.692;23.312;2023-07-16T08:50:51;5.07;;;3.58;;
11123;SDS011;5616;42.692;23.312;2023-07-16T08:53:18;4.50;;;3.47;;
11123;SDS011;5616;42.692;23.312;2023-07-16T08:55:47;4.75;;;3.58;;
11123;SDS011;5616;42.692;23.312;2023-07-16T08:58:14;5.10;;;3.40;;
11123;SDS011;5616;42.692;23.312;2023-07-16T09:00:42;4.50;;;3.58;;
11123;SDS011;5616;42.692;23.312;2023-07-16T09:03:10;4.60;;;3.88;;
11123;SDS011;5616;42.692;23.312;2023-07-16T09:05:39;7.45;;;4.57;;
11123;SDS011;5616;42.692;23.312;2023-07-16T09:08:06;8.35;;;4.47;;
11123;SDS011;5616;42.692;23.312;2023-07-16T09:10:33;9.60;;;4.60;;
11123;SDS011;5616;42.692;23.312;2023-07-16T09:13:01;4.65;;;4.18;;
11123;SDS011;5616;42.692;23.312;2023-07-16T09:15:29;5.25;;;3.75;;
11123;SDS011;5616;42.692;23.312;2023-07-16T09:17:56;5.13;;;3.85;;
11123;SDS011;5616;42.692;23.312;2023-07-16T09:20:23;4.53;;;4.13;;
11123;SDS011;5616;42.692;23.312;2023-07-16T09:22:50;5.93;;;4.30;;
11123;SDS011;5616;42.692;23.312;2023-07-16T09:25:25;6.20;;;4.13;;
11123;SDS011;5616;42.692;23.312;2023-07-16T09:27:52;4.82;;;4.07;;
11123;SDS011;5616;42.692;23.312;2023-07-16T09:30:21;8.00;;;4.50;;
11123;SDS011;5616;42.692;23.312;2023-07-16T09:32:48;5.13;;;4.60;;
11123;SDS011;5616;42.692;23.312;2023-07-16T09:35:15;5.82;;;4.43;;
11123;SDS011;5616;42.692;23.312;2023-07-16T09:37:43;5.85;;;4.05;;
11123;SDS011;5616;42.692;23.312;2023-07-16T09:40:11;6.32;;;4.38;;
11123;SDS011;5616;42.692;23.312;2023-07-16T09:42:39;8.13;;;4.57;;
11123;SDS011;5616;42.692;23.312;2023-07-16T09:45:07;6.30;;;5.10;;
11123;SDS011;5616;42.692;23.312;2023-07-16T09:47:36;7.55;;;5.15;;
11123;SDS011;5616;42.692;23.312;2023-07-16T09:50:03;7.68;;;5.68;;
11123;SDS011;5616;42.692;23.312;2023-07-16T09:52:31;8.18;;;5.35;;
11123;SDS011;5616;42.692;23.312;2023-07-16T09:55:00;6.50;;;5.57;;
11123;SDS011;5616;42.692;23.312;2023-07-16T09:57:34;10.00;;;6.50;;
11123;SDS011;5616;42.692;23.312;2023-07-16T10:00:04;7.68;;;6.03;;
11123;SDS011;5616;42.692;23.312;2023-07-16T10:02:43;9.20;;;6.10;;
11123;SDS011;5616;42.692;23.312;2023-07-16T10:05:11;7.82;;;5.88;;
11123;SDS011;5616;42.692;23.312;2023-07-16T10:07:39;9.38;;;5.90;;
11123;SDS011;5616;42.692;23.312;2023-07-16T10:10:07;8.95;;;6.10;;
11123;SDS011;5616;42.692;23.312;2023-07-16T10:12:35;8.90;;;6.30;;
11123;SDS011;5616;42.692;23.312;2023-07-16T10:15:03;11.27;;;6.65;;
11123;SDS011;5616;42.692;23.312;2023-07-16T10:17:32;9.90;;;6.43;;
11123;SDS011;5616;42.692;23.312;2023-07-16T10:20:01;8.32;;;6.60;;
11123;SDS011;5616;42.692;23.312;2023-07-16T10:22:34;9.30;;;6.63;;
11123;SDS011;5616;42.692;23.312;2023-07-16T10:25:07;10.82;;;7.07;;
11123;SDS011;5616;42.692;23.312;2023-07-16T10:27:35;13.35;;;7.70;;
11123;SDS011;5616;42.692;23.312;2023-07-16T10:30:03;8.48;;;6.65;;
11123;SDS011;5616;42.692;23.312;2023-07-16T10:32:33;11.35;;;6.93;;
11123;SDS011;5616;42.692;23.312;2023-07-16T10:35:02;9.38;;;7.07;;
11123;SDS011;5616;42.692;23.312;2023-07-16T10:37:30;11.65;;;6.80;;
11123;SDS011;5616;42.692;23.312;2023-07-16T10:39:58;12.35;;;7.28;;
11123;SDS011;5616;42.692;23.312;2023-07-16T10:42:26;10.48;;;6.88;;
11123;SDS011;5616;42.692;23.312;2023-07-16T10:44:54;8.27;;;6.35;;
11123;SDS011;5616;42.692;23.312;2023-07-16T10:47:29;9.52;;;6.45;;
11123;SDS011;5616;42.692;23.312;2023-07-16T10:49:57;10.48;;;6.50;;
11123;SDS011;5616;42.692;23.312;2023-07-16T10:52:25;9.80;;;6.68;;
11123;SDS011;5616;42.692;23.312;2023-07-16T10:54:52;8.98;;;6.18;;
11123;SDS011;5616;42.692;23.312;2023-07-16T10:57:20;10.05;;;6.50;;
11123;SDS011;5616;42.692;23.312;2023-07-16T10:59:48;8.75;;;6.68;;
11123;SDS011;5616;42.692;23.312;2023-07-16T11:02:15;8.02;;;6.75;;
11123;SDS011;5616;42.692;23.312;2023-07-16T11:04:43;10.98;;;6.88;;
11123;SDS011;5616;42.692;23.312;2023-07-16T11:07:12;10.55;;;7.40;;
11123;SDS011;5616;42.692;23.312;2023-07-16T11:09:44;10.00;;;6.60;;
11123;SDS011;5616;42.692;23.312;2023-07-16T11:12:13;8.30;;;6.32;;
11123;SDS011;5616;42.692;23.312;2023-07-16T11:14:42;8.30;;;6.20;;
11123;SDS011;5616;42.692;23.312;2023-07-16T11:17:10;9.10;;;6.45;;
11123;SDS011;5616;42.692;23.312;2023-07-16T11:19:38;9.52;;;6.80;;
11123;SDS011;5616;42.692;23.312;2023-07-16T11:22:08;12.18;;;6.47;;
11123;SDS011;5616;42.692;23.312;2023-07-16T11:24:36;8.88;;;6.93;;
11123;SDS011;5616;42.692;23.312;2023-07-16T11:27:06;9.85;;;6.38;;
11123;SDS011;5616;42.692;23.312;2023-07-16T11:29:40;10.13;;;6.70;;
11123;SDS011;5616;42.692;23.312;2023-07-16T11:32:08;8.43;;;6.72;;
11123;SDS011;5616;42.692;23.312;2023-07-16T11:34:35;8.73;;;6.70;;
11123;SDS011;5616;42.692;23.312;2023-07-16T11:37:09;12.98;;;7.22;;
11123;SDS011;5616;42.692;23.312;2023-07-16T11:39:36;6.82;;;5.97;;
11123;SDS011;5616;42.692;23.312;2023-07-16T11:42:04;8.38;;;6.55;;
11123;SDS011;5616;42.692;23.312;2023-07-16T11:44:33;10.70;;;7.05;;
11123;SDS011;5616;42.692;23.312;2023-07-16T11:47:01;12.40;;;6.88;;
11123;SDS011;5616;42.692;23.312;2023-07-16T11:49:28;7.13;;;6.43;;
11123;SDS011;5616;42.692;23.312;2023-07-16T11:51:56;7.63;;;6.30;;
11123;SDS011;5616;42.692;23.312;2023-07-16T11:54:24;7.63;;;6.80;;
11123;SDS011;5616;42.692;23.312;2023-07-16T11:56:51;9.30;;;7.00;;
11123;SDS011;5616;42.692;23.312;2023-07-16T11:59:19;9.15;;;7.05;;
11123;SDS011;5616;42.692;23.312;2023-07-16T12:01:47;10.57;;;7.00;;
11123;SDS011;5616;42.692;23.312;2023-07-16T12:04:15;9.98;;;6.43;;
11123;SDS011;5616;42.692;23.312;2023-07-16T12:06:43;9.18;;;6.50;;
11123;SDS011;5616;42.692;23.312;2023-07-16T12:09:09;9.70;;;6.38;;
11123;SDS011;5616;42.692;23.312;2023-07-16T12:11:36;8.60;;;6.35;;
11123;SDS011;5616;42.692;23.312;2023-07-16T12:14:04;7.63;;;6.43;;
11123;SDS011;5616;42.692;23.312;2023-07-16T12:16:33;12.18;;;6.55;;
11123;SDS011;5616;42.692;23.312;2023-07-16T12:19:00;7.28;;;6.28;;
11123;SDS011;5616;42.692;23.312;2023-07-16T12:21:26;7.72;;;6.28;;
11123;SDS011;5616;42.692;23.312;2023-07-16T12:23:53;7.78;;;6.57;;
11123;SDS011;5616;42.692;23.312;2023-07-16T12:26:20;7.90;;;6.30;;
11123;SDS011;5616;42.692;23.312;2023-07-16T12:28:47;8.40;;;6.45;;
11123;SDS011;5616;42.692;23.312;2023-07-16T12:31:14;9.43;;;6.22;;
11123;SDS011;5616;42.692;23.312;2023-07-16T12:33:43;6.85;;;6.00;;
11123;SDS011;5616;42.692;23.312;2023-07-16T12:36:10;9.32;;;6.50;;
11123;SDS011;5616;42.692;23.312;2023-07-16T12:38:37;7.80;;;6.10;;
11123;SDS011;5616;42.692;23.312;2023-07-16T12:41:04;9.93;;;6.95;;
11123;SDS011;5616;42.692;23.312;2023-07-16T12:43:31;9.60;;;6.65;;
11123;SDS011;5616;42.692;23.312;2023-07-16T12:45:59;6.65;;;6.05;;
11123;SDS011;5616;42.692;23.312;2023-07-16T12:48:28;10.43;;;6.63;;
11123;SDS011;5616;42.692;23.312;2023-07-16T12:50:56;10.32;;;6.70;;
11123;SDS011;5616;42.692;23.312;2023-07-16T12:53:23;8.88;;;6.30;;
11123;SDS011;5616;42.692;23.312;2023-07-16T12:55:50;8.40;;;6.60;;
11123;SDS011;5616;42.692;23.312;2023-07-16T12:58:18;10.15;;;6.00;;
11123;SDS011;5616;42.692;23.312;2023-07-16T13:00:45;10.32;;;6.30;;
11123;SDS011;5616;42.692;23.312;2023-07-16T13:03:12;8.90;;;6.18;;
11123;SDS011;5616;42.692;23.312;2023-07-16T13:05:41;9.25;;;6.40;;
11123;SDS011;5616;42.692;23.312;2023-07-16T13:08:11;6.90;;;6.20;;
11123;SDS011;5616;42.692;23.312;2023-07-16T13:10:38;7.38;;;6.40;;
11123;SDS011;5616;42.692;23.312;2023-07-16T13:13:05;10.07;;;6.40;;
11123;SDS011;5616;42.692;23.312;2023-07-16T13:15:33;9.18;;;6.75;;
11123;SDS011;5616;42.692;23.312;2023-07-16T13:18:00;6.38;;;5.72;;
11123;SDS011;5616;42.692;23.312;2023-07-16T13:20:27;7.78;;;5.85;;
11123;SDS011;5616;42.692;23.312;2023-07-16T13:22:55;6.65;;;5.93;;
11123;SDS011;5616;42.692;23.312;2023-07-16T13:25:23;8.27;;;6.10;;
11123;SDS011;5616;42.692;23.312;2023-07-16T13:27:50;10.48;;;6.53;;
11123;SDS011;5616;42.692;23.312;2023-07-16T13:30:18;9.45;;;5.75;;
11123;SDS011;5616;42.692;23.312;2023-07-16T13:32:45;10.63;;;6.25;;
11123;SDS011;5616;42.692;23.312;2023-07-16T13:35:14;9.70;;;6.25;;
11123;SDS011;5616;42.692;23.312;2023-07-16T13:37:41;8.90;;;6.00;;
11123;SDS011;5616;42.692;23.312;2023-07-16T13:40:08;7.15;;;5.32;;
11123;SDS011;5616;42.692;23.312;2023-07-16T13:42:37;11.25;;;5.32;;
11123;SDS011;5616;42.692;23.312;2023-07-16T13:45:04;7.47;;;5.50;;
11123;SDS011;5616;42.692;23.312;2023-07-16T13:47:32;9.50;;;5.07;;
11123;SDS011;5616;42.692;23.312;2023-07-16T13:49:58;9.40;;;5.38;;
11123;SDS011;5616;42.692;23.312;2023-07-16T13:52:25;7.07;;;5.40;;
11123;SDS011;5616;42.692;23.312;2023-07-16T13:54:52;6.63;;;5.45;;
11123;SDS011;5616;42.692;23.312;2023-07-16T13:57:19;9.38;;;5.53;;
11123;SDS011;5616;42.692;23.312;2023-07-16T13:59:47;8.40;;;6.03;;
11123;SDS011;5616;42.692;23.312;2023-07-16T14:02:14;11.75;;;5.90;;
11123;SDS011;5616;42.692;23.312;2023-07-16T14:04:41;7.93;;;5.78;;
11123;SDS011;5616;42.692;23.312;2023-07-16T14:07:08;7.45;;;6.10;;
11123;SDS011;5616;42.692;23.312;2023-07-16T14:09:35;10.35;;;6.10;;
11123;SDS011;5616;42.692;23.312;2023-07-16T14:12:02;10.18;;;6.30;;
11123;SDS011;5616;42.692;23.312;2023-07-16T14:14:29;9.75;;;5.50;;
11123;SDS011;5616;42.692;23.312;2023-07-16T14:16:57;9.63;;;6.13;;
11123;SDS011;5616;42.692;23.312;2023-07-16T14:19:24;8.63;;;5.65;;
11123;SDS011;5616;42.692;23.312;2023-07-16T14:21:51;9.50;;;6.82;;
11123;SDS011;5616;42.692;23.312;2023-07-16T14:24:18;10.52;;;6.45;;
11123;SDS011;5616;42.692;23.312;2023-07-16T14:26:45;6.38;;;5.65;;
11123;SDS011;5616;42.692;23.312;2023-07-16T14:29:12;7.22;;;5.40;;
11123;SDS011;5616;42.692;23.312;2023-07-16T14:31:39;11.55;;;6.90;;
11123;SDS011;5616;42.692;23.312;2023-07-16T14:34:07;7.80;;;5.80;;
11123;SDS011;5616;42.692;23.312;2023-07-16T14:36:34;9.57;;;6.50;;
11123;SDS011;5616;42.692;23.312;2023-07-16T14:39:01;7.07;;;5.85;;
11123;SDS011;5616;42.692;23.312;2023-07-16T14:41:29;8.27;;;6.15;;
11123;SDS011;5616;42.692;23.312;2023-07-16T14:43:56;7.60;;;6.28;;
11123;SDS011;5616;42.692;23.312;2023-07-16T14:46:23;8.93;;;6.75;;
11123;SDS011;5616;42.692;23.312;2023-07-16T14:48:50;9.65;;;6.40;;
11123;SDS011;5616;42.692;23.312;2023-07-16T14:51:22;8.15;;;6.03;;
11123;SDS011;5616;42.692;23.312;2023-07-16T14:53:49;11.02;;;5.75;;